sensor_id;sensor_type;location;lat;lon;timestamp;P1;P2;P0
67892;PMS7003;54688;52.376;16.744;2023-05-07T00:02:02;15;14;
67892;PMS7003;54688;52.376;16.744;2023-05-07T00:05:05;17;14;
67892;PMS7003;54688;52.376;16.744;2023-05-07T00:11:06;14;13;
67892;PMS7003;54688;52.376;16.744;2023-05-07T00:14:08;17;16;
67892;PMS7003;54688;52.376;16.744;2023-05-07T00:17:11;13;11;
67892;PMS7003;54688;52.376;16.744;2023-05-07T00:20:13;16;13;
67892;PMS7003;54688;52.376;16.744;2023-05-07T00:23:15;13;12;
67892;PMS7003;54688;52.376;16.744;2023-05-07T00:26:17;12;11;
67892;PMS7003;54688;52.376;16.744;2023-05-07T00:29:19;11;10;
67892;PMS7003;54688;52.376;16.744;2023-05-07T00:32:21;17;13;
67892;PMS7003;54688;52.376;16.744;2023-05-07T00:35:24;19;15;
67892;PMS7003;54688;52.376;16.744;2023-05-07T00:38:26;11;9;
67892;PMS7003;54688;52.376;16.744;2023-05-07T00:41:29;9;8;
67892;PMS7003;54688;52.376;16.744;2023-05-07T00:44:31;17;13;
67892;PMS7003;54688;52.376;16.744;2023-05-07T00:47:33;13;12;
67892;PMS7003;54688;52.376;16.744;2023-05-07T00:50:35;14;11;
67892;PMS7003;54688;52.376;16.744;2023-05-07T00:53:37;15;14;
67892;PMS7003;54688;52.376;16.744;2023-05-07T00:56:40;9;9;
67892;PMS7003;54688;52.376;16.744;2023-05-07T00:59:42;9;9;
67892;PMS7003;54688;52.376;16.744;2023-05-07T01:02:44;18;11;
67892;PMS7003;54688;52.376;16.744;2023-05-07T01:05:47;9;8;
67892;PMS7003;54688;52.376;16.744;2023-05-07T01:08:49;13;13;
67892;PMS7003;54688;52.376;16.744;2023-05-07T01:11:52;12;12;
67892;PMS7003;54688;52.376;16.744;2023-05-07T01:14:55;20;15;
67892;PMS7003;54688;52.376;16.744;2023-05-07T01:17:57;17;14;
67892;PMS7003;54688;52.376;16.744;2023-05-07T01:21:01;19;17;
67892;PMS7003;54688;52.376;16.744;2023-05-07T01:24:05;15;14;
67892;PMS7003;54688;52.376;16.744;2023-05-07T01:27:08;17;15;
67892;PMS7003;54688;52.376;16.744;2023-05-07T01:30:10;13;13;
67892;PMS7003;54688;52.376;16.744;2023-05-07T01:33:14;18;15;
67892;PMS7003;54688;52.376;16.744;2023-05-07T01:36:18;16;15;
67892;PMS7003;54688;52.376;16.744;2023-05-07T01:39:22;19;17;
67892;PMS7003;54688;52.376;16.744;2023-05-07T01:42:25;20;16;
67892;PMS7003;54688;52.376;16.744;2023-05-07T01:45:28;19;17;
67892;PMS7003;54688;52.376;16.744;2023-05-07T01:48:30;21;16;
67892;PMS7003;54688;52.376;16.744;2023-05-07T01:51:33;17;13;
67892;PMS7003;54688;52.376;16.744;2023-05-07T01:54:36;21;19;
67892;PMS7003;54688;52.376;16.744;2023-05-07T01:57:37;17;16;
67892;PMS7003;54688;52.376;16.744;2023-05-07T02:00:40;21;17;
67892;PMS7003;54688;52.376;16.744;2023-05-07T02:03:42;28;19;
67892;PMS7003;54688;52.376;16.744;2023-05-07T02:06:44;25;17;
67892;PMS7003;54688;52.376;16.744;2023-05-07T02:09:46;19;16;
67892;PMS7003;54688;52.376;16.744;2023-05-07T02:12:47;15;15;
67892;PMS7003;54688;52.376;16.744;2023-05-07T02:18:49;14;14;
67892;PMS7003;54688;52.376;16.744;2023-05-07T02:21:51;20;17;
67892;PMS7003;54688;52.376;16.744;2023-05-07T02:24:53;22;18;
67892;PMS7003;54688;52.376;16.744;2023-05-07T02:27:55;18;16;
67892;PMS7003;54688;52.376;16.744;2023-05-07T02:30:57;19;16;
67892;PMS7003;54688;52.376;16.744;2023-05-07T02:34:00;18;15;
67892;PMS7003;54688;52.376;16.744;2023-05-07T02:37:02;20;17;
67892;PMS7003;54688;52.376;16.744;2023-05-07T02:40:05;18;14;
67892;PMS7003;54688;52.376;16.744;2023-05-07T02:43:07;17;16;
67892;PMS7003;54688;52.376;16.744;2023-05-07T02:46:10;22;16;
67892;PMS7003;54688;52.376;16.744;2023-05-07T02:49:12;20;17;
67892;PMS7003;54688;52.376;16.744;2023-05-07T02:52:14;21;16;
67892;PMS7003;54688;52.376;16.744;2023-05-07T02:55:16;20;19;
67892;PMS7003;54688;52.376;16.744;2023-05-07T02:58:19;17;14;
67892;PMS7003;54688;52.376;16.744;2023-05-07T03:01:21;20;17;
67892;PMS7003;54688;52.376;16.744;2023-05-07T03:04:23;24;18;
67892;PMS7003;54688;52.376;16.744;2023-05-07T03:07:25;19;16;
67892;PMS7003;54688;52.376;16.744;2023-05-07T03:10:27;21;18;
67892;PMS7003;54688;52.376;16.744;2023-05-07T03:16:28;21;17;
67892;PMS7003;54688;52.376;16.744;2023-05-07T03:19:30;20;15;
67892;PMS7003;54688;52.376;16.744;2023-05-07T03:22:31;18;18;
67892;PMS7003;54688;52.376;16.744;2023-05-07T03:25:33;19;15;
67892;PMS7003;54688;52.376;16.744;2023-05-07T03:31:35;17;17;
67892;PMS7003;54688;52.376;16.744;2023-05-07T03:34:38;18;17;
67892;PMS7003;54688;52.376;16.744;2023-05-07T03:37:40;19;16;
67892;PMS7003;54688;52.376;16.744;2023-05-07T03:40:42;24;19;
67892;PMS7003;54688;52.376;16.744;2023-05-07T03:43:44;18;18;
67892;PMS7003;54688;52.376;16.744;2023-05-07T03:46:46;24;16;
67892;PMS7003;54688;52.376;16.744;2023-05-07T03:49:48;20;15;
67892;PMS7003;54688;52.376;16.744;2023-05-07T03:52:50;18;16;
67892;PMS7003;54688;52.376;16.744;2023-05-07T03:58:52;21;16;
67892;PMS7003;54688;52.376;16.744;2023-05-07T04:01:54;19;15;
67892;PMS7003;54688;52.376;16.744;2023-05-07T04:04:56;17;15;
67892;PMS7003;54688;52.376;16.744;2023-05-07T04:07:59;15;14;
67892;PMS7003;54688;52.376;16.744;2023-05-07T04:11:01;21;17;
67892;PMS7003;54688;52.376;16.744;2023-05-07T04:14:03;22;18;
67892;PMS7003;54688;52.376;16.744;2023-05-07T04:17:05;20;16;
67892;PMS7003;54688;52.376;16.744;2023-05-07T04:20:09;16;15;
67892;PMS7003;54688;52.376;16.744;2023-05-07T04:23:10;17;12;
67892;PMS7003;54688;52.376;16.744;2023-05-07T04:26:12;19;17;
67892;PMS7003;54688;52.376;16.744;2023-05-07T04:29:15;19;16;
67892;PMS7003;54688;52.376;16.744;2023-05-07T04:32:17;23;17;
67892;PMS7003;54688;52.376;16.744;2023-05-07T04:35:19;20;13;
67892;PMS7003;54688;52.376;16.744;2023-05-07T04:38:21;17;14;
67892;PMS7003;54688;52.376;16.744;2023-05-07T04:41:23;17;15;
67892;PMS7003;54688;52.376;16.744;2023-05-07T04:44:26;15;14;
67892;PMS7003;54688;52.376;16.744;2023-05-07T04:47:28;17;15;
67892;PMS7003;54688;52.376;16.744;2023-05-07T04:50:30;15;14;
67892;PMS7003;54688;52.376;16.744;2023-05-07T04:53:32;19;16;
67892;PMS7003;54688;52.376;16.744;2023-05-07T04:56:34;15;12;
67892;PMS7003;54688;52.376;16.744;2023-05-07T04:59:36;15;13;
67892;PMS7003;54688;52.376;16.744;2023-05-07T05:02:38;18;12;
67892;PMS7003;54688;52.376;16.744;2023-05-07T05:05:39;12;12;
67892;PMS7003;54688;52.376;16.744;2023-05-07T05:08:42;18;13;
67892;PMS7003;54688;52.376;16.744;2023-05-07T05:11:44;13;13;
67892;PMS7003;54688;52.376;16.744;2023-05-07T05:14:46;17;13;
67892;PMS7003;54688;52.376;16.744;2023-05-07T05:17:48;18;17;
67892;PMS7003;54688;52.376;16.744;2023-05-07T05:20:51;14;13;
67892;PMS7003;54688;52.376;16.744;2023-05-07T05:23:53;11;11;
67892;PMS7003;54688;52.376;16.744;2023-05-07T05:26:55;15;12;
67892;PMS7003;54688;52.376;16.744;2023-05-07T05:29:57;13;12;
67892;PMS7003;54688;52.376;16.744;2023-05-07T05:32:59;13;12;
67892;PMS7003;54688;52.376;16.744;2023-05-07T05:36:02;14;13;
67892;PMS7003;54688;52.376;16.744;2023-05-07T05:39:04;14;13;
67892;PMS7003;54688;52.376;16.744;2023-05-07T05:42:05;13;11;
67892;PMS7003;54688;52.376;16.744;2023-05-07T05:45:09;8;7;
67892;PMS7003;54688;52.376;16.744;2023-05-07T05:48:11;8;7;
67892;PMS7003;54688;52.376;16.744;2023-05-07T05:51:13;18;10;
67892;PMS7003;54688;52.376;16.744;2023-05-07T05:54:15;10;8;
67892;PMS7003;54688;52.376;16.744;2023-05-07T05:57:17;9;7;
67892;PMS7003;54688;52.376;16.744;2023-05-07T06:00:19;9;6;
67892;PMS7003;54688;52.376;16.744;2023-05-07T06:03:21;11;8;
67892;PMS7003;54688;52.376;16.744;2023-05-07T06:06:24;6;5;
67892;PMS7003;54688;52.376;16.744;2023-05-07T06:09:26;7;6;
67892;PMS7003;54688;52.376;16.744;2023-05-07T06:12:28;6;6;
67892;PMS7003;54688;52.376;16.744;2023-05-07T06:15:30;7;6;
67892;PMS7003;54688;52.376;16.744;2023-05-07T06:18:32;7;7;
67892;PMS7003;54688;52.376;16.744;2023-05-07T06:21:34;6;5;
67892;PMS7003;54688;52.376;16.744;2023-05-07T06:24:36;7;5;
67892;PMS7003;54688;52.376;16.744;2023-05-07T06:27:38;5;4;
67892;PMS7003;54688;52.376;16.744;2023-05-07T06:30:40;9;5;
67892;PMS7003;54688;52.376;16.744;2023-05-07T06:33:42;5;5;
67892;PMS7003;54688;52.376;16.744;2023-05-07T06:36:45;7;4;
67892;PMS7003;54688;52.376;16.744;2023-05-07T06:39:47;6;3;
67892;PMS7003;54688;52.376;16.744;2023-05-07T06:42:48;3;3;
67892;PMS7003;54688;52.376;16.744;2023-05-07T06:45:50;7;6;
67892;PMS7003;54688;52.376;16.744;2023-05-07T06:48:52;3;2;
67892;PMS7003;54688;52.376;16.744;2023-05-07T06:51:54;3;3;
67892;PMS7003;54688;52.376;16.744;2023-05-07T06:54:56;7;3;
67892;PMS7003;54688;52.376;16.744;2023-05-07T06:57:58;7;4;
67892;PMS7003;54688;52.376;16.744;2023-05-07T07:01:00;3;3;
67892;PMS7003;54688;52.376;16.744;2023-05-07T07:04:03;4;4;
67892;PMS7003;54688;52.376;16.744;2023-05-07T07:07:05;4;4;
67892;PMS7003;54688;52.376;16.744;2023-05-07T07:10:08;5;4;
67892;PMS7003;54688;52.376;16.744;2023-05-07T07:13:10;5;2;
67892;PMS7003;54688;52.376;16.744;2023-05-07T07:16:12;4;3;
67892;PMS7003;54688;52.376;16.744;2023-05-07T07:19:14;3;3;
67892;PMS7003;54688;52.376;16.744;2023-05-07T07:22:16;3;3;
67892;PMS7003;54688;52.376;16.744;2023-05-07T07:25:18;2;2;
67892;PMS7003;54688;52.376;16.744;2023-05-07T07:28:20;2;2;
67892;PMS7003;54688;52.376;16.744;2023-05-07T07:31:22;7;2;
67892;PMS7003;54688;52.376;16.744;2023-05-07T07:34:24;1;1;
67892;PMS7003;54688;52.376;16.744;2023-05-07T07:37:26;3;1;
67892;PMS7003;54688;52.376;16.744;2023-05-07T07:40:28;1;1;
67892;PMS7003;54688;52.376;16.744;2023-05-07T07:43:29;3;2;
67892;PMS7003;54688;52.376;16.744;2023-05-07T07:46:31;1;1;
67892;PMS7003;54688;52.376;16.744;2023-05-07T07:49:33;2;2;
67892;PMS7003;54688;52.376;16.744;2023-05-07T07:52:35;1;1;
67892;PMS7003;54688;52.376;16.744;2023-05-07T07:55:38;2;2;
67892;PMS7003;54688;52.376;16.744;2023-05-07T07:58:40;2;2;
67892;PMS7003;54688;52.376;16.744;2023-05-07T08:01:42;1;1;
67892;PMS7003;54688;52.376;16.744;2023-05-07T08:04:45;1;1;
67892;PMS7003;54688;52.376;16.744;2023-05-07T08:07:47;1;0;
67892;PMS7003;54688;52.376;16.744;2023-05-07T08:10:48;4;2;
67892;PMS7003;54688;52.376;16.744;2023-05-07T08:13:50;2;1;
67892;PMS7003;54688;52.376;16.744;2023-05-07T08:16:52;3;1;
67892;PMS7003;54688;52.376;16.744;2023-05-07T08:19:54;2;1;
67892;PMS7003;54688;52.376;16.744;2023-05-07T08:22:56;3;2;
67892;PMS7003;54688;52.376;16.744;2023-05-07T08:25:58;2;2;
67892;PMS7003;54688;52.376;16.744;2023-05-07T08:29:00;3;2;
67892;PMS7003;54688;52.376;16.744;2023-05-07T08:35:02;0;0;
67892;PMS7003;54688;52.376;16.744;2023-05-07T08:38:04;4;2;
67892;PMS7003;54688;52.376;16.744;2023-05-07T08:41:09;3;1;
67892;PMS7003;54688;52.376;16.744;2023-05-07T08:44:12;4;3;
67892;PMS7003;54688;52.376;16.744;2023-05-07T08:47:16;2;2;
67892;PMS7003;54688;52.376;16.744;2023-05-07T08:50:18;2;2;
67892;PMS7003;54688;52.376;16.744;2023-05-07T08:53:21;8;4;
67892;PMS7003;54688;52.376;16.744;2023-05-07T08:56:23;2;2;
67892;PMS7003;54688;52.376;16.744;2023-05-07T08:59:25;2;2;
67892;PMS7003;54688;52.376;16.744;2023-05-07T09:02:27;4;2;
67892;PMS7003;54688;52.376;16.744;2023-05-07T09:05:30;0;0;
67892;PMS7003;54688;52.376;16.744;2023-05-07T09:08:33;2;2;
67892;PMS7003;54688;52.376;16.744;2023-05-07T09:11:36;2;2;
67892;PMS7003;54688;52.376;16.744;2023-05-07T09:14:38;3;2;
67892;PMS7003;54688;52.376;16.744;2023-05-07T09:17:40;1;1;
67892;PMS7003;54688;52.376;16.744;2023-05-07T09:20:42;3;3;
67892;PMS7003;54688;52.376;16.744;2023-05-07T09:23:44;2;2;
67892;PMS7003;54688;52.376;16.744;2023-05-07T09:26:46;1;1;
67892;PMS7003;54688;52.376;16.744;2023-05-07T09:29:48;2;2;
67892;PMS7003;54688;52.376;16.744;2023-05-07T09:32:50;2;2;
67892;PMS7003;54688;52.376;16.744;2023-05-07T09:35:52;4;3;
67892;PMS7003;54688;52.376;16.744;2023-05-07T09:38:55;1;1;
67892;PMS7003;54688;52.376;16.744;2023-05-07T09:41:57;3;2;
67892;PMS7003;54688;52.376;16.744;2023-05-07T09:44:59;1;1;
67892;PMS7003;54688;52.376;16.744;2023-05-07T09:48:04;3;3;
67892;PMS7003;54688;52.376;16.744;2023-05-07T09:51:15;5;2;
67892;PMS7003;54688;52.376;16.744;2023-05-07T09:54:18;1;1;
67892;PMS7003;54688;52.376;16.744;2023-05-07T09:57:22;4;3;
67892;PMS7003;54688;52.376;16.744;2023-05-07T10:00:25;3;3;
67892;PMS7003;54688;52.376;16.744;2023-05-07T10:03:29;5;4;
67892;PMS7003;54688;52.376;16.744;2023-05-07T10:06:33;4;2;
67892;PMS7003;54688;52.376;16.744;2023-05-07T10:09:37;2;2;
67892;PMS7003;54688;52.376;16.744;2023-05-07T10:12:40;2;2;
67892;PMS7003;54688;52.376;16.744;2023-05-07T10:15:42;2;2;
67892;PMS7003;54688;52.376;16.744;2023-05-07T10:18:45;4;3;
67892;PMS7003;54688;52.376;16.744;2023-05-07T10:21:54;3;3;
67892;PMS7003;54688;52.376;16.744;2023-05-07T10:24:57;1;1;
67892;PMS7003;54688;52.376;16.744;2023-05-07T10:28:06;3;3;
67892;PMS7003;54688;52.376;16.744;2023-05-07T10:31:18;1;1;
67892;PMS7003;54688;52.376;16.744;2023-05-07T10:34:29;1;1;
67892;PMS7003;54688;52.376;16.744;2023-05-07T10:37:32;2;2;
67892;PMS7003;54688;52.376;16.744;2023-05-07T10:40:34;1;1;
67892;PMS7003;54688;52.376;16.744;2023-05-07T10:43:39;3;3;
67892;PMS7003;54688;52.376;16.744;2023-05-07T10:46:41;2;2;
67892;PMS7003;54688;52.376;16.744;2023-05-07T10:50:46;2;2;
67892;PMS7003;54688;52.376;16.744;2023-05-07T10:53:48;1;1;
67892;PMS7003;54688;52.376;16.744;2023-05-07T10:56:51;2;2;
67892;PMS7003;54688;52.376;16.744;2023-05-07T10:59:52;2;2;
67892;PMS7003;54688;52.376;16.744;2023-05-07T11:03:09;2;2;
67892;PMS7003;54688;52.376;16.744;2023-05-07T11:06:13;3;1;
67892;PMS7003;54688;52.376;16.744;2023-05-07T11:09:15;2;2;
67892;PMS7003;54688;52.376;16.744;2023-05-07T11:12:17;1;1;
67892;PMS7003;54688;52.376;16.744;2023-05-07T11:15:50;2;2;
67892;PMS7003;54688;52.376;16.744;2023-05-07T11:18:54;1;1;
67892;PMS7003;54688;52.376;16.744;2023-05-07T11:21:56;2;0;
67892;PMS7003;54688;52.376;16.744;2023-05-07T11:24:59;2;2;
67892;PMS7003;54688;52.376;16.744;2023-05-07T11:28:05;2;2;
67892;PMS7003;54688;52.376;16.744;2023-05-07T11:31:07;1;1;
67892;PMS7003;54688;52.376;16.744;2023-05-07T11:34:10;0;0;
67892;PMS7003;54688;52.376;16.744;2023-05-07T11:37:16;1;1;
67892;PMS7003;54688;52.376;16.744;2023-05-07T11:40:18;1;0;
67892;PMS7003;54688;52.376;16.744;2023-05-07T11:43:21;2;2;
67892;PMS7003;54688;52.376;16.744;2023-05-07T11:46:24;2;2;
67892;PMS7003;54688;52.376;16.744;2023-05-07T11:49:26;1;0;
67892;PMS7003;54688;52.376;16.744;2023-05-07T11:52:28;2;2;
67892;PMS7003;54688;52.376;16.744;2023-05-07T11:55:30;2;0;
67892;PMS7003;54688;52.376;16.744;2023-05-07T11:58:32;2;2;
67892;PMS7003;54688;52.376;16.744;2023-05-07T12:01:35;1;1;
67892;PMS7003;54688;52.376;16.744;2023-05-07T12:04:38;2;2;
67892;PMS7003;54688;52.376;16.744;2023-05-07T12:07:39;3;2;
67892;PMS7003;54688;52.376;16.744;2023-05-07T12:10:42;2;2;
67892;PMS7003;54688;52.376;16.744;2023-05-07T12:13:44;2;2;
67892;PMS7003;54688;52.376;16.744;2023-05-07T12:16:47;2;2;
67892;PMS7003;54688;52.376;16.744;2023-05-07T12:19:49;1;1;
67892;PMS7003;54688;52.376;16.744;2023-05-07T12:22:52;1;0;
67892;PMS7003;54688;52.376;16.744;2023-05-07T12:25:55;3;2;
67892;PMS7003;54688;52.376;16.744;2023-05-07T12:28:57;3;1;
67892;PMS7003;54688;52.376;16.744;2023-05-07T12:32:00;3;2;
67892;PMS7003;54688;52.376;16.744;2023-05-07T12:35:02;2;2;
67892;PMS7003;54688;52.376;16.744;2023-05-07T12:38:08;1;1;
67892;PMS7003;54688;52.376;16.744;2023-05-07T12:41:10;2;2;
67892;PMS7003;54688;52.376;16.744;2023-05-07T12:44:15;4;3;
67892;PMS7003;54688;52.376;16.744;2023-05-07T12:47:17;1;1;
67892;PMS7003;54688;52.376;16.744;2023-05-07T12:50:19;2;2;
67892;PMS7003;54688;52.376;16.744;2023-05-07T12:53:23;2;2;
67892;PMS7003;54688;52.376;16.744;2023-05-07T12:56:26;4;2;
67892;PMS7003;54688;52.376;16.744;2023-05-07T12:59:33;1;1;
67892;PMS7003;54688;52.376;16.744;2023-05-07T13:02:38;1;1;
67892;PMS7003;54688;52.376;16.744;2023-05-07T13:05:40;2;2;
67892;PMS7003;54688;52.376;16.744;2023-05-07T13:08:42;2;2;
67892;PMS7003;54688;52.376;16.744;2023-05-07T13:11:43;2;2;
67892;PMS7003;54688;52.376;16.744;2023-05-07T13:14:45;3;2;
67892;PMS7003;54688;52.376;16.744;2023-05-07T13:17:47;1;1;
67892;PMS7003;54688;52.376;16.744;2023-05-07T13:20:49;3;3;
67892;PMS7003;54688;52.376;16.744;2023-05-07T13:23:51;3;2;
67892;PMS7003;54688;52.376;16.744;2023-05-07T13:26:53;2;2;
67892;PMS7003;54688;52.376;16.744;2023-05-07T13:29:55;2;2;
67892;PMS7003;54688;52.376;16.744;2023-05-07T13:32:57;1;1;
67892;PMS7003;54688;52.376;16.744;2023-05-07T13:36:00;4;0;
67892;PMS7003;54688;52.376;16.744;2023-05-07T13:39:02;4;3;
67892;PMS7003;54688;52.376;16.744;2023-05-07T13:42:04;3;1;
67892;PMS7003;54688;52.376;16.744;2023-05-07T13:45:07;3;3;
67892;PMS7003;54688;52.376;16.744;2023-05-07T13:48:10;5;2;
67892;PMS7003;54688;52.376;16.744;2023-05-07T13:51:12;4;2;
67892;PMS7003;54688;52.376;16.744;2023-05-07T13:54:14;4;1;
67892;PMS7003;54688;52.376;16.744;2023-05-07T13:57:17;2;2;
67892;PMS7003;54688;52.376;16.744;2023-05-07T14:00:19;4;3;
67892;PMS7003;54688;52.376;16.744;2023-05-07T14:03:21;3;3;
67892;PMS7003;54688;52.376;16.744;2023-05-07T14:06:22;6;4;
67892;PMS7003;54688;52.376;16.744;2023-05-07T14:09:25;4;2;
67892;PMS7003;54688;52.376;16.744;2023-05-07T14:12:27;5;3;
67892;PMS7003;54688;52.376;16.744;2023-05-07T14:15:29;5;3;
67892;PMS7003;54688;52.376;16.744;2023-05-07T14:18:30;2;2;
67892;PMS7003;54688;52.376;16.744;2023-05-07T14:21:32;1;1;
67892;PMS7003;54688;52.376;16.744;2023-05-07T14:24:34;1;1;
67892;PMS7003;54688;52.376;16.744;2023-05-07T14:27:36;4;2;
67892;PMS7003;54688;52.376;16.744;2023-05-07T14:30:38;3;3;
67892;PMS7003;54688;52.376;16.744;2023-05-07T14:33:41;3;3;
67892;PMS7003;54688;52.376;16.744;2023-05-07T14:36:43;2;2;
67892;PMS7003;54688;52.376;16.744;2023-05-07T14:39:45;2;2;
67892;PMS7003;54688;52.376;16.744;2023-05-07T14:42:48;5;3;
67892;PMS7003;54688;52.376;16.744;2023-05-07T14:45:50;2;2;
67892;PMS7003;54688;52.376;16.744;2023-05-07T14:48:52;3;2;
67892;PMS7003;54688;52.376;16.744;2023-05-07T14:51:57;2;2;
67892;PMS7003;54688;52.376;16.744;2023-05-07T14:54:59;2;2;
67892;PMS7003;54688;52.376;16.744;2023-05-07T14:58:01;2;2;
67892;PMS7003;54688;52.376;16.744;2023-05-07T15:01:04;2;2;
67892;PMS7003;54688;52.376;16.744;2023-05-07T15:04:05;2;2;
67892;PMS7003;54688;52.376;16.744;2023-05-07T15:07:08;2;2;
67892;PMS7003;54688;52.376;16.744;2023-05-07T15:10:09;3;1;
67892;PMS7003;54688;52.376;16.744;2023-05-07T15:13:11;2;2;
67892;PMS7003;54688;52.376;16.744;2023-05-07T15:16:14;2;2;
67892;PMS7003;54688;52.376;16.744;2023-05-07T15:19:17;2;2;
67892;PMS7003;54688;52.376;16.744;2023-05-07T15:22:19;2;2;
67892;PMS7003;54688;52.376;16.744;2023-05-07T15:25:20;1;1;
67892;PMS7003;54688;52.376;16.744;2023-05-07T15:28:22;2;2;
67892;PMS7003;54688;52.376;16.744;2023-05-07T15:31:24;1;1;
67892;PMS7003;54688;52.376;16.744;2023-05-07T15:34:27;2;2;
67892;PMS7003;54688;52.376;16.744;2023-05-07T15:37:30;4;2;
67892;PMS7003;54688;52.376;16.744;2023-05-07T15:40:32;1;1;
67892;PMS7003;54688;52.376;16.744;2023-05-07T15:43:43;3;3;
67892;PMS7003;54688;52.376;16.744;2023-05-07T15:46:46;3;3;
67892;PMS7003;54688;52.376;16.744;2023-05-07T15:49:48;4;3;
67892;PMS7003;54688;52.376;16.744;2023-05-07T15:52:50;4;4;
67892;PMS7003;54688;52.376;16.744;2023-05-07T15:55:53;2;2;
67892;PMS7003;54688;52.376;16.744;2023-05-07T15:58:55;4;3;
67892;PMS7003;54688;52.376;16.744;2023-05-07T16:01:57;2;2;
67892;PMS7003;54688;52.376;16.744;2023-05-07T16:04:58;3;3;
67892;PMS7003;54688;52.376;16.744;2023-05-07T16:08:00;4;2;
67892;PMS7003;54688;52.376;16.744;2023-05-07T16:11:02;2;2;
67892;PMS7003;54688;52.376;16.744;2023-05-07T16:14:06;5;3;
67892;PMS7003;54688;52.376;16.744;2023-05-07T16:17:08;5;3;
67892;PMS7003;54688;52.376;16.744;2023-05-07T16:20:10;5;2;
67892;PMS7003;54688;52.376;16.744;2023-05-07T16:23:12;3;3;
67892;PMS7003;54688;52.376;16.744;2023-05-07T16:26:14;3;3;
67892;PMS7003;54688;52.376;16.744;2023-05-07T16:29:15;1;1;
67892;PMS7003;54688;52.376;16.744;2023-05-07T16:32:17;1;1;
67892;PMS7003;54688;52.376;16.744;2023-05-07T16:35:20;2;1;
67892;PMS7003;54688;52.376;16.744;2023-05-07T16:38:23;3;2;
67892;PMS7003;54688;52.376;16.744;2023-05-07T16:41:25;4;2;
67892;PMS7003;54688;52.376;16.744;2023-05-07T16:44:27;5;3;
67892;PMS7003;54688;52.376;16.744;2023-05-07T16:47:29;4;3;
67892;PMS7003;54688;52.376;16.744;2023-05-07T16:50:32;4;4;
67892;PMS7003;54688;52.376;16.744;2023-05-07T16:53:34;2;2;
67892;PMS7003;54688;52.376;16.744;2023-05-07T16:56:37;3;3;
67892;PMS7003;54688;52.376;16.744;2023-05-07T16:59:39;3;1;
67892;PMS7003;54688;52.376;16.744;2023-05-07T17:02:41;4;2;
67892;PMS7003;54688;52.376;16.744;2023-05-07T17:05:43;3;3;
67892;PMS7003;54688;52.376;16.744;2023-05-07T17:08:45;3;3;
67892;PMS7003;54688;52.376;16.744;2023-05-07T17:11:47;1;1;
67892;PMS7003;54688;52.376;16.744;2023-05-07T17:14:49;2;2;
67892;PMS7003;54688;52.376;16.744;2023-05-07T17:17:53;3;3;
67892;PMS7003;54688;52.376;16.744;2023-05-07T17:20:55;4;3;
67892;PMS7003;54688;52.376;16.744;2023-05-07T17:23:57;4;4;
67892;PMS7003;54688;52.376;16.744;2023-05-07T17:26:58;3;3;
67892;PMS7003;54688;52.376;16.744;2023-05-07T17:30:00;2;2;
67892;PMS7003;54688;52.376;16.744;2023-05-07T17:33:01;5;5;
67892;PMS7003;54688;52.376;16.744;2023-05-07T17:36:04;3;3;
67892;PMS7003;54688;52.376;16.744;2023-05-07T17:39:06;4;4;
67892;PMS7003;54688;52.376;16.744;2023-05-07T17:42:07;4;3;
67892;PMS7003;54688;52.376;16.744;2023-05-07T17:45:10;5;3;
67892;PMS7003;54688;52.376;16.744;2023-05-07T17:48:11;4;3;
67892;PMS7003;54688;52.376;16.744;2023-05-07T17:51:13;4;4;
67892;PMS7003;54688;52.376;16.744;2023-05-07T17:54:15;3;3;
67892;PMS7003;54688;52.376;16.744;2023-05-07T17:57:17;6;4;
67892;PMS7003;54688;52.376;16.744;2023-05-07T18:00:19;5;5;
67892;PMS7003;54688;52.376;16.744;2023-05-07T18:03:21;5;5;
67892;PMS7003;54688;52.376;16.744;2023-05-07T18:06:22;4;3;
67892;PMS7003;54688;52.376;16.744;2023-05-07T18:12:22;11;8;
67892;PMS7003;54688;52.376;16.744;2023-05-07T18:15:24;10;10;
67892;PMS7003;54688;52.376;16.744;2023-05-07T18:18:27;8;6;
67892;PMS7003;54688;52.376;16.744;2023-05-07T18:21:28;8;7;
67892;PMS7003;54688;52.376;16.744;2023-05-07T18:24:30;7;6;
67892;PMS7003;54688;52.376;16.744;2023-05-07T18:27:32;5;5;
67892;PMS7003;54688;52.376;16.744;2023-05-07T18:30:34;14;11;
67892;PMS7003;54688;52.376;16.744;2023-05-07T18:33:36;8;6;
67892;PMS7003;54688;52.376;16.744;2023-05-07T18:36:38;7;7;
67892;PMS7003;54688;52.376;16.744;2023-05-07T18:39:40;9;8;
67892;PMS7003;54688;52.376;16.744;2023-05-07T18:42:42;11;10;
67892;PMS7003;54688;52.376;16.744;2023-05-07T18:45:46;15;14;
67892;PMS7003;54688;52.376;16.744;2023-05-07T18:48:48;22;14;
67892;PMS7003;54688;52.376;16.744;2023-05-07T18:51:51;22;15;
67892;PMS7003;54688;52.376;16.744;2023-05-07T18:54:53;19;17;
67892;PMS7003;54688;52.376;16.744;2023-05-07T18:57:55;20;18;
67892;PMS7003;54688;52.376;16.744;2023-05-07T19:00:57;18;15;
67892;PMS7003;54688;52.376;16.744;2023-05-07T19:04:00;18;16;
67892;PMS7003;54688;52.376;16.744;2023-05-07T19:07:02;23;18;
67892;PMS7003;54688;52.376;16.744;2023-05-07T19:10:05;15;15;
67892;PMS7003;54688;52.376;16.744;2023-05-07T19:13:07;19;16;
67892;PMS7003;54688;52.376;16.744;2023-05-07T19:16:09;23;20;
67892;PMS7003;54688;52.376;16.744;2023-05-07T19:19:11;20;17;
67892;PMS7003;54688;52.376;16.744;2023-05-07T19:22:13;12;12;
67892;PMS7003;54688;52.376;16.744;2023-05-07T19:25:16;34;25;
67892;PMS7003;54688;52.376;16.744;2023-05-07T19:28:18;49;37;
67892;PMS7003;54688;52.376;16.744;2023-05-07T19:31:20;75;53;
67892;PMS7003;54688;52.376;16.744;2023-05-07T19:34:22;58;44;
67892;PMS7003;54688;52.376;16.744;2023-05-07T19:37:24;69;50;
67892;PMS7003;54688;52.376;16.744;2023-05-07T19:40:26;74;54;
67892;PMS7003;54688;52.376;16.744;2023-05-07T19:43:29;69;48;
67892;PMS7003;54688;52.376;16.744;2023-05-07T19:46:31;66;46;
67892;PMS7003;54688;52.376;16.744;2023-05-07T19:49:34;69;47;
67892;PMS7003;54688;52.376;16.744;2023-05-07T19:52:36;63;47;
67892;PMS7003;54688;52.376;16.744;2023-05-07T19:55:39;47;35;
67892;PMS7003;54688;52.376;16.744;2023-05-07T19:58:40;29;25;
67892;PMS7003;54688;52.376;16.744;2023-05-07T20:01:43;20;19;
67892;PMS7003;54688;52.376;16.744;2023-05-07T20:04:45;22;17;
67892;PMS7003;54688;52.376;16.744;2023-05-07T20:07:46;21;15;
67892;PMS7003;54688;52.376;16.744;2023-05-07T20:10:49;16;15;
67892;PMS7003;54688;52.376;16.744;2023-05-07T20:13:51;24;19;
67892;PMS7003;54688;52.376;16.744;2023-05-07T20:16:53;23;18;
67892;PMS7003;54688;52.376;16.744;2023-05-07T20:19:55;19;13;
67892;PMS7003;54688;52.376;16.744;2023-05-07T20:22:57;17;15;
67892;PMS7003;54688;52.376;16.744;2023-05-07T20:26:00;20;19;
67892;PMS7003;54688;52.376;16.744;2023-05-07T20:29:02;20;18;
67892;PMS7003;54688;52.376;16.744;2023-05-07T20:32:05;16;15;
67892;PMS7003;54688;52.376;16.744;2023-05-07T20:35:07;22;20;
67892;PMS7003;54688;52.376;16.744;2023-05-07T20:38:09;27;24;